createdAt,value
2022-10-01T00:02:08.830Z,4.95
2022-10-01T00:04:37.823Z,5.28
2022-10-01T00:07:09.799Z,6.13
2022-10-01T00:09:38.694Z,5.32
2022-10-01T00:12:08.416Z,5.35
2022-10-01T00:14:39.412Z,5.72
2022-10-01T00:17:07.676Z,6.13
2022-10-01T00:19:35.979Z,5.57
2022-10-01T00:22:04.325Z,6.03
2022-10-01T00:24:32.666Z,6.20
2022-10-01T00:27:00.994Z,6.35
2022-10-01T00:29:31.142Z,6.80
2022-10-01T00:31:59.536Z,6.35
2022-10-01T00:34:28.362Z,6.47
2022-10-01T00:36:56.918Z,7.18
2022-10-01T00:39:25.284Z,6.80
2022-10-01T00:41:53.693Z,6.63
2022-10-01T00:44:33.729Z,8.38
2022-10-01T00:47:07.787Z,7.68
2022-10-01T00:49:39.826Z,7.28
2022-10-01T00:52:13.911Z,8.57
2022-10-01T00:54:50.949Z,8.02
2022-10-01T00:57:24.234Z,8.55
2022-10-01T00:59:56.904Z,8.85
2022-10-01T01:02:25.440Z,8.57
2022-10-01T01:04:54.078Z,9.35
2022-10-01T01:07:27.185Z,8.60
2022-10-01T01:09:56.225Z,8.40
2022-10-01T01:12:50.867Z,9.43
2022-10-01T01:15:28.180Z,10.15
2022-10-01T01:18:23.016Z,10.05
2022-10-01T01:21:13.571Z,12.10
2022-10-01T01:24:07.962Z,13.23
2022-10-01T01:27:08.571Z,11.63
2022-10-01T01:29:39.981Z,11.73
2022-10-01T01:32:15.185Z,12.43
2022-10-01T01:34:49.033Z,11.75
2022-10-01T01:37:22.119Z,11.98
2022-10-01T01:39:53.888Z,13.57
2022-10-01T01:42:29.723Z,14.15
2022-10-01T01:45:01.298Z,13.70
2022-10-01T01:47:32.981Z,13.43
2022-10-01T01:50:06.144Z,13.15
2022-10-01T01:52:35.229Z,12.52
2022-10-01T01:55:07.535Z,13.10
2022-10-01T01:57:44.310Z,14.15
2022-10-01T02:00:13.494Z,15.55
2022-10-01T02:02:49.115Z,14.43
2022-10-01T02:05:35.589Z,13.48
2022-10-01T02:08:55.209Z,13.48
2022-10-01T02:11:29.850Z,10.48
2022-10-01T02:14:29.240Z,10.82
2022-10-01T02:17:11.198Z,9.38
2022-10-01T02:19:49.571Z,9.43
2022-10-01T02:22:27.930Z,9.23
2022-10-01T02:25:00.038Z,9.07
2022-10-01T02:27:56.117Z,9.68
2022-10-01T02:30:24.854Z,8.70
2022-10-01T02:32:56.601Z,9.70
2022-10-01T02:35:29.096Z,10.15
2022-10-01T02:37:59.929Z,10.07
2022-10-01T02:43:08.805Z,12.35
2022-10-01T02:45:40.399Z,12.15
2022-10-01T02:48:11.919Z,13.38
2022-10-01T02:51:02.116Z,12.73
2022-10-01T02:53:47.895Z,12.05
2022-10-01T02:56:36.761Z,11.40
2022-10-01T02:59:08.776Z,10.30
2022-10-01T03:01:37.764Z,11.40
2022-10-01T03:04:06.162Z,9.23
2022-10-01T03:06:35.957Z,8.95
2022-10-01T03:09:04.296Z,9.70
2022-10-01T03:11:35.947Z,11.50
2022-10-01T03:14:04.545Z,10.80
2022-10-01T03:16:33.338Z,10.15
2022-10-01T03:19:01.627Z,10.65
2022-10-01T03:21:30.160Z,11.27
2022-10-01T03:23:58.819Z,10.77
2022-10-01T03:26:27.489Z,10.73
2022-10-01T03:28:57.203Z,12.20
2022-10-01T03:31:26.361Z,11.50
2022-10-01T03:33:59.280Z,11.30
2022-10-01T03:36:28.259Z,9.85
2022-10-01T03:38:56.757Z,9.45
2022-10-01T03:41:25.597Z,8.38
2022-10-01T03:43:58.320Z,7.35
2022-10-01T03:46:31.724Z,6.95
2022-10-01T03:49:00.891Z,6.85
2022-10-01T03:51:31.342Z,6.72
2022-10-01T03:53:59.861Z,6.90
2022-10-01T03:56:28.434Z,6.00
2022-10-01T03:58:57.124Z,6.68
2022-10-01T04:01:26.265Z,6.13
2022-10-01T04:03:54.762Z,5.88
2022-10-01T04:06:23.121Z,5.57
2022-10-01T04:08:52.983Z,5.47
2022-10-01T04:11:21.768Z,4.43
2022-10-01T04:13:50.741Z,4.43
2022-10-01T04:16:19.463Z,4.10
2022-10-01T04:18:47.746Z,3.90
2022-10-01T04:21:16.425Z,4.35
2022-10-01T04:23:44.852Z,3.90
2022-10-01T04:26:13.244Z,4.30
2022-10-01T04:28:41.585Z,3.55
2022-10-01T04:31:25.248Z,3.70
2022-10-01T04:33:56.646Z,3.00
2022-10-01T04:36:25.842Z,3.00
2022-10-01T04:39:00.901Z,2.70
2022-10-01T04:41:32.200Z,2.80
2022-10-01T04:44:04.178Z,2.92
2022-10-01T04:46:32.605Z,2.83
2022-10-01T04:49:01.327Z,2.63
2022-10-01T04:51:29.807Z,3.05
2022-10-01T04:53:58.130Z,2.72
2022-10-01T04:56:26.362Z,2.40
2022-10-01T04:58:54.822Z,2.47
2022-10-01T05:01:23.184Z,2.60
2022-10-01T05:03:51.876Z,2.60
2022-10-01T05:06:20.270Z,2.25
2022-10-01T05:08:49.628Z,2.20
2022-10-01T05:11:18.729Z,2.60
2022-10-01T05:13:47.332Z,2.30
2022-10-01T05:16:15.685Z,2.50
2022-10-01T05:18:46.116Z,2.90
2022-10-01T05:21:15.763Z,2.72
2022-10-01T05:23:44.465Z,2.63
2022-10-01T05:26:13.092Z,2.70
2022-10-01T05:28:44.793Z,2.95
2022-10-01T05:31:13.760Z,3.00
2022-10-01T05:33:45.215Z,3.40
2022-10-01T05:36:13.532Z,3.17
2022-10-01T05:38:42.337Z,3.20
2022-10-01T05:41:11.031Z,3.50
2022-10-01T05:43:39.411Z,3.17
2022-10-01T05:46:07.750Z,3.10
2022-10-01T05:48:37.836Z,2.90
2022-10-01T05:51:08.070Z,3.78
2022-10-01T05:53:40.221Z,2.97
2022-10-01T05:56:09.119Z,4.07
2022-10-01T05:58:37.536Z,3.60
2022-10-01T06:01:06.017Z,3.85
2022-10-01T06:03:34.748Z,3.38
2022-10-01T06:06:05.728Z,4.18
2022-10-01T06:08:38.198Z,3.88
2022-10-01T06:11:07.483Z,4.20
2022-10-01T06:13:35.912Z,4.00
2022-10-01T06:16:04.343Z,4.55
2022-10-01T06:18:32.719Z,4.10
2022-10-01T06:21:02.205Z,3.83
2022-10-01T06:23:33.691Z,4.70
2022-10-01T06:26:05.610Z,4.38
2022-10-01T06:28:34.218Z,4.60
2022-10-01T06:31:04.593Z,4.32
2022-10-01T06:33:33.292Z,5.10
2022-10-01T06:36:03.796Z,4.93
2022-10-01T06:38:32.278Z,5.20
2022-10-01T06:41:02.190Z,5.13
2022-10-01T06:43:32.840Z,5.65
2022-10-01T06:46:03.134Z,4.65
2022-10-01T06:48:32.797Z,5.20
2022-10-01T06:51:01.062Z,4.82
2022-10-01T06:53:29.904Z,4.70
2022-10-01T06:56:05.061Z,4.32
2022-10-01T06:58:33.543Z,4.53
2022-10-01T07:01:04.805Z,4.93
2022-10-01T07:03:33.348Z,5.10
2022-10-01T07:06:04.646Z,4.68
2022-10-01T07:08:33.396Z,4.75
2022-10-01T07:11:02.875Z,5.22
2022-10-01T07:13:31.369Z,5.13
2022-10-01T07:15:59.853Z,4.63
2022-10-01T07:18:28.396Z,4.53
2022-10-01T07:20:59.735Z,5.07
2022-10-01T07:23:33.881Z,4.43
2022-10-01T07:26:04.931Z,4.15
2022-10-01T07:28:33.734Z,4.35
2022-10-01T07:31:11.335Z,4.10
2022-10-01T07:33:40.686Z,3.60
2022-10-01T07:36:11.615Z,4.30
2022-10-01T07:38:39.975Z,3.80
2022-10-01T07:41:09.540Z,4.22
2022-10-01T07:43:39.565Z,3.30
2022-10-01T07:46:08.159Z,3.13
2022-10-01T07:48:37.317Z,3.20
2022-10-01T07:51:06.108Z,3.33
2022-10-01T07:53:34.520Z,3.05
2022-10-01T07:56:05.530Z,3.13
2022-10-01T07:58:34.353Z,3.03
2022-10-01T08:01:04.513Z,3.67
2022-10-01T08:03:33.163Z,2.75
2022-10-01T08:06:06.916Z,2.90
2022-10-01T08:08:35.204Z,2.85
2022-10-01T08:11:04.108Z,2.70
2022-10-01T08:13:32.562Z,2.58
2022-10-01T08:16:06.394Z,2.90
2022-10-01T08:18:35.246Z,2.97
2022-10-01T08:21:04.336Z,2.80
2022-10-01T08:23:34.212Z,2.43
2022-10-01T08:26:07.086Z,2.10
2022-10-01T08:28:35.683Z,2.10
2022-10-01T08:31:07.780Z,2.42
2022-10-01T08:33:38.133Z,1.83
2022-10-01T08:36:09.831Z,1.80
2022-10-01T08:38:40.294Z,2.08
2022-10-01T08:41:39.821Z,1.98
2022-10-01T08:44:20.030Z,1.92
2022-10-01T08:46:50.902Z,2.10
2022-10-01T08:49:34.947Z,1.83
2022-10-01T08:52:13.436Z,2.05
2022-10-01T08:55:04.924Z,2.08
2022-10-01T08:57:56.969Z,2.35
2022-10-01T09:00:25.644Z,1.88
2022-10-01T09:03:01.208Z,1.75
2022-10-01T09:06:04.089Z,1.90
2022-10-01T09:08:57.272Z,2.25
2022-10-01T09:11:43.783Z,1.80
2022-10-01T09:14:15.085Z,2.25
2022-10-01T09:17:20.589Z,2.25
2022-10-01T09:20:13.355Z,2.10
2022-10-01T09:22:49.986Z,2.30
2022-10-01T09:25:24.687Z,1.88
2022-10-01T09:28:33.755Z,2.00
2022-10-01T09:31:20.346Z,2.17
2022-10-01T09:33:58.223Z,2.35
2022-10-01T09:36:30.167Z,2.15
2022-10-01T09:39:40.166Z,2.38
2022-10-01T09:42:08.793Z,2.60
2022-10-01T09:44:37.746Z,1.58
2022-10-01T09:47:22.841Z,1.80
2022-10-01T09:49:52.249Z,1.75
2022-10-01T09:52:34.786Z,1.70
2022-10-01T09:55:03.113Z,2.35
2022-10-01T09:57:37.365Z,1.88
2022-10-01T10:00:18.336Z,1.90
2022-10-01T10:02:49.976Z,2.05
2022-10-01T10:05:20.101Z,1.88
2022-10-01T10:08:11.074Z,1.95
2022-10-01T10:11:00.708Z,2.10
2022-10-01T10:13:39.205Z,2.30
2022-10-01T10:16:31.113Z,1.70
2022-10-01T10:19:14.598Z,1.15
2022-10-01T10:22:09.045Z,1.23
2022-10-01T10:24:37.767Z,1.90
2022-10-01T10:27:20.961Z,1.48
2022-10-01T10:29:49.465Z,1.38
2022-10-01T10:32:26.772Z,1.15
2022-10-01T10:35:10.043Z,1.40
2022-10-01T10:37:50.021Z,1.88
2022-10-01T10:40:28.502Z,1.40
2022-10-01T10:42:59.177Z,1.17
2022-10-01T10:45:39.986Z,1.40
2022-10-01T10:48:17.064Z,1.50
2022-10-01T10:50:47.076Z,1.13
2022-10-01T10:53:27.551Z,1.50
2022-10-01T10:56:05.498Z,1.23
2022-10-01T10:58:40.326Z,1.10
2022-10-01T11:01:13.738Z,0.70
2022-10-01T11:03:47.458Z,0.70
2022-10-01T11:06:18.694Z,0.98
2022-10-01T11:08:57.423Z,0.85
2022-10-01T11:11:57.564Z,0.93
2022-10-01T11:14:46.594Z,1.20
2022-10-01T11:17:18.710Z,1.20
2022-10-01T11:20:20.714Z,1.00
2022-10-01T11:23:07.054Z,1.52
2022-10-01T11:26:10.790Z,1.30
2022-10-01T11:28:57.895Z,1.50
2022-10-01T11:31:35.598Z,1.67
2022-10-01T11:34:38.978Z,1.23
2022-10-01T11:37:39.139Z,1.35
2022-10-01T11:40:44.319Z,1.42
2022-10-01T11:43:26.250Z,1.33
2022-10-01T11:46:07.941Z,1.27
2022-10-01T11:48:44.786Z,1.50
2022-10-01T11:51:20.045Z,1.20
2022-10-01T11:54:12.302Z,1.60
2022-10-01T11:57:08.818Z,1.50
2022-10-01T12:00:05.289Z,1.30
2022-10-01T12:02:40.794Z,1.10
2022-10-01T12:05:17.243Z,1.33
2022-10-01T12:07:45.633Z,1.30
2022-10-01T12:10:50.881Z,1.45
2022-10-01T12:13:30.456Z,1.10
2022-10-01T12:16:40.713Z,1.70
2022-10-01T12:19:17.465Z,1.50
2022-10-01T12:22:00.458Z,1.58
2022-10-01T12:24:36.116Z,2.03
2022-10-01T12:27:33.526Z,1.30
2022-10-01T12:30:13.540Z,1.25
2022-10-01T12:32:50.296Z,1.17
2022-10-01T12:35:52.761Z,1.75
2022-10-01T12:38:33.085Z,1.60
2022-10-01T12:41:20.450Z,1.45
2022-10-01T12:43:51.681Z,1.85
2022-10-01T12:46:41.606Z,1.60
2022-10-01T12:49:22.497Z,1.92
2022-10-01T12:52:42.545Z,1.75
2022-10-01T12:55:51.682Z,2.10
2022-10-01T12:58:29.743Z,2.33
2022-10-01T13:01:50.683Z,2.05
2022-10-01T13:04:50.895Z,1.58
2022-10-01T13:07:57.102Z,1.73
2022-10-01T13:11:20.561Z,1.60
2022-10-01T13:13:52.865Z,1.88
2022-10-01T13:16:56.163Z,1.67
2022-10-01T13:19:48.353Z,1.73
2022-10-01T13:23:10.121Z,1.98
2022-10-01T13:25:54.751Z,2.03
2022-10-01T13:28:30.212Z,1.60
2022-10-01T13:31:01.966Z,1.52
2022-10-01T13:33:33.199Z,1.30
2022-10-01T13:36:13.727Z,2.10
2022-10-01T13:38:44.063Z,1.40
2022-10-01T13:41:15.950Z,1.80
2022-10-01T13:43:58.101Z,2.92
2022-10-01T13:46:31.287Z,1.95
2022-10-01T13:49:07.499Z,1.63
2022-10-01T13:51:38.172Z,1.83
2022-10-01T13:56:38.095Z,2.20
2022-10-01T13:59:30.406Z,1.90
2022-10-01T14:01:59.075Z,1.70
2022-10-01T14:04:40.477Z,2.05
2022-10-01T14:07:25.247Z,2.28
2022-10-01T14:09:58.233Z,1.55
2022-10-01T14:12:54.260Z,1.80
2022-10-01T14:15:44.223Z,1.55
2022-10-01T14:18:17.472Z,1.60
2022-10-01T14:21:18.348Z,1.80
2022-10-01T14:23:46.525Z,1.40
2022-10-01T14:26:46.838Z,1.80
2022-10-01T14:29:39.678Z,1.45
2022-10-01T14:32:36.398Z,1.85
2022-10-01T14:35:28.448Z,1.48
2022-10-01T14:38:00.434Z,1.30
2022-10-01T14:40:50.138Z,1.63
2022-10-01T14:43:21.544Z,1.23
2022-10-01T14:45:59.528Z,1.88
2022-10-01T14:48:33.721Z,1.35
2022-10-01T14:51:04.968Z,1.77
2022-10-01T14:53:41.988Z,1.27
2022-10-01T14:56:14.793Z,1.50
2022-10-01T14:58:52.734Z,1.30
2022-10-01T15:01:23.167Z,1.63
2022-10-01T15:03:52.746Z,1.33
2022-10-01T15:06:30.318Z,1.30
2022-10-01T15:09:19.002Z,1.58
2022-10-01T15:11:51.722Z,1.30
2022-10-01T15:14:24.759Z,1.23
2022-10-01T15:16:54.221Z,1.52
2022-10-01T15:19:23.630Z,2.20
2022-10-01T15:21:57.429Z,2.58
2022-10-01T15:24:43.090Z,2.22
2022-10-01T15:27:14.303Z,1.85
2022-10-01T15:29:43.961Z,2.42
2022-10-01T15:32:16.585Z,1.67
2022-10-01T15:34:50.073Z,2.03
2022-10-01T15:37:30.716Z,2.03
2022-10-01T15:40:00.832Z,3.38
2022-10-01T15:42:32.847Z,1.95
2022-10-01T15:45:07.128Z,2.45
2022-10-01T15:47:37.464Z,1.98
2022-10-01T15:50:09.062Z,3.38
2022-10-01T15:52:49.695Z,4.60
2022-10-01T15:55:30.539Z,2.10
2022-10-01T16:00:47.587Z,2.00
2022-10-01T16:03:30.053Z,1.88
2022-10-01T16:06:02.402Z,2.40
2022-10-01T16:08:34.718Z,2.90
2022-10-01T16:11:31.669Z,2.10
2022-10-01T16:14:21.649Z,1.90
2022-10-01T16:16:50.846Z,2.20
2022-10-01T16:19:30.856Z,2.97
2022-10-01T16:22:17.522Z,2.60
2022-10-01T16:25:10.103Z,2.65
2022-10-01T16:27:50.433Z,3.67
2022-10-01T16:30:21.916Z,2.78
2022-10-01T16:32:50.429Z,3.08
2022-10-01T16:35:30.066Z,2.38
2022-10-01T16:37:59.022Z,2.55
2022-10-01T16:40:32.493Z,3.95
2022-10-01T16:43:01.076Z,2.88
2022-10-01T16:45:38.854Z,3.15
2022-10-01T16:48:19.680Z,2.63
2022-10-01T16:53:18.321Z,2.50
2022-10-01T16:55:47.012Z,3.00
2022-10-01T16:58:15.790Z,3.83
2022-10-01T17:00:44.269Z,2.95
2022-10-01T17:03:17.758Z,3.33
2022-10-01T17:05:46.205Z,3.33
2022-10-01T17:08:15.879Z,3.47
2022-10-01T17:10:44.349Z,3.15
2022-10-01T17:13:15.823Z,2.47
2022-10-01T17:15:44.291Z,3.75
2022-10-01T17:18:13.807Z,2.55
2022-10-01T17:20:42.188Z,3.17
2022-10-01T17:23:13.283Z,2.88
2022-10-01T17:25:42.554Z,2.63
2022-10-01T17:28:14.854Z,4.00
2022-10-01T17:30:46.555Z,3.05
2022-10-01T17:33:19.576Z,3.50
2022-10-01T17:35:51.928Z,3.58
2022-10-01T17:38:21.553Z,2.60
2022-10-01T17:40:56.327Z,3.15
2022-10-01T17:43:25.185Z,3.20
2022-10-01T17:46:00.100Z,2.97
2022-10-01T17:48:29.132Z,3.60
2022-10-01T17:51:04.140Z,2.65
2022-10-01T17:53:39.641Z,3.17
2022-10-01T17:56:14.974Z,3.35
2022-10-01T17:58:45.570Z,3.13
2022-10-01T18:01:20.384Z,2.90
2022-10-01T18:03:55.401Z,3.92
2022-10-01T18:06:24.770Z,3.15
2022-10-01T18:08:55.961Z,3.55
2022-10-01T18:11:27.539Z,2.67
2022-10-01T18:16:25.046Z,3.10
2022-10-01T18:21:48.164Z,3.42
2022-10-01T18:24:17.190Z,4.10
2022-10-01T18:26:46.836Z,3.92
2022-10-01T18:29:23.729Z,3.20
2022-10-01T18:32:06.829Z,3.70
2022-10-01T18:34:39.477Z,3.83
2022-10-01T18:37:40.367Z,4.70
2022-10-01T18:40:17.086Z,4.35
2022-10-01T18:42:57.940Z,4.82
2022-10-01T18:45:55.455Z,3.70
2022-10-01T18:48:32.990Z,3.92
2022-10-01T18:51:08.568Z,3.25
2022-10-01T18:54:02.394Z,3.15
2022-10-01T18:56:40.721Z,3.53
2022-10-01T18:59:46.980Z,3.17
2022-10-01T19:02:21.555Z,3.00
2022-10-01T19:05:26.846Z,3.72
2022-10-01T19:08:20.973Z,4.10
2022-10-01T19:11:13.453Z,4.75
2022-10-01T19:14:24.077Z,3.38
2022-10-01T19:17:35.642Z,3.25
2022-10-01T19:20:25.853Z,3.65
2022-10-01T19:23:11.456Z,3.60
2022-10-01T19:25:54.836Z,3.15
2022-10-01T19:28:44.511Z,2.70
2022-10-01T19:31:33.124Z,4.45
2022-10-01T19:34:08.951Z,3.20
2022-10-01T19:36:41.571Z,3.95
2022-10-01T19:39:19.983Z,3.83
2022-10-01T19:41:55.556Z,3.42
2022-10-01T19:44:54.307Z,5.30
2022-10-01T19:47:34.681Z,4.43
2022-10-01T19:50:17.932Z,3.55
2022-10-01T19:52:51.490Z,3.25
2022-10-01T19:55:23.166Z,4.38
2022-10-01T19:57:52.803Z,2.20
2022-10-01T20:00:24.062Z,3.03
2022-10-01T20:03:18.012Z,2.42
2022-10-01T20:05:53.172Z,2.55
2022-10-01T20:08:34.169Z,2.85
2022-10-01T20:14:42.354Z,3.58
2022-10-01T20:17:22.733Z,4.15
2022-10-01T20:20:02.223Z,3.38
2022-10-01T20:22:40.792Z,3.13
2022-10-01T20:25:14.632Z,3.25
2022-10-01T20:28:20.649Z,3.35
2022-10-01T20:30:54.369Z,3.35
2022-10-01T20:33:51.737Z,3.55
2022-10-01T20:36:27.918Z,3.60
2022-10-01T20:39:06.292Z,3.15
2022-10-01T20:41:44.671Z,3.22
2022-10-01T20:44:26.201Z,3.33
2022-10-01T20:47:31.558Z,3.95
2022-10-01T20:50:09.363Z,3.08
2022-10-01T20:52:41.412Z,3.58
2022-10-01T20:55:28.846Z,3.17
2022-10-01T20:58:03.525Z,2.72
2022-10-01T21:00:32.886Z,3.10
2022-10-01T21:03:11.574Z,3.78
2022-10-01T21:05:48.274Z,2.95
2022-10-01T21:08:42.166Z,4.00
2022-10-01T21:11:40.366Z,3.33
2022-10-01T21:14:30.185Z,2.53
2022-10-01T21:17:22.745Z,2.88
2022-10-01T21:20:03.638Z,3.35
2022-10-01T21:25:06.381Z,2.95
2022-10-01T21:27:47.701Z,3.08
2022-10-01T21:30:21.755Z,3.17
2022-10-01T21:33:12.011Z,2.40
2022-10-01T21:35:52.852Z,2.88
2022-10-01T21:41:08.677Z,3.55
2022-10-01T21:44:10.876Z,2.53
2022-10-01T21:46:55.471Z,3.72
2022-10-01T21:49:36.375Z,2.53
2022-10-01T21:52:19.848Z,2.83
2022-10-01T21:54:51.475Z,3.47
2022-10-01T21:57:39.657Z,2.28
2022-10-01T22:00:21.719Z,3.17
2022-10-01T22:03:08.987Z,3.13
2022-10-01T22:05:40.100Z,3.03
2022-10-01T22:08:45.404Z,3.53
2022-10-01T22:11:18.562Z,2.20
2022-10-01T22:13:57.533Z,2.63
2022-10-01T22:16:40.578Z,2.13
2022-10-01T22:19:19.617Z,1.77
2022-10-01T22:22:07.716Z,1.77
2022-10-01T22:24:46.693Z,1.30
2022-10-01T22:27:45.696Z,1.77
2022-10-01T22:30:20.534Z,1.65
2022-10-01T22:33:20.179Z,1.35
2022-10-01T22:36:11.082Z,0.80
2022-10-01T22:39:07.815Z,1.30
2022-10-01T22:41:41.354Z,1.00
2022-10-01T22:44:21.262Z,1.10
2022-10-01T22:47:00.803Z,1.10
2022-10-01T22:50:34.251Z,1.17
2022-10-01T22:53:15.223Z,1.17
2022-10-01T22:55:59.595Z,1.40
2022-10-01T22:58:33.300Z,1.67
2022-10-01T23:01:15.148Z,1.27
2022-10-01T23:03:53.671Z,1.05
2022-10-01T23:06:36.057Z,1.33
2022-10-01T23:09:20.622Z,2.20
2022-10-01T23:12:15.817Z,1.10
2022-10-01T23:15:03.089Z,1.35
2022-10-01T23:17:39.681Z,1.50
2022-10-01T23:20:33.220Z,1.33
2022-10-01T23:23:32.619Z,1.95
2022-10-01T23:26:27.883Z,1.67
2022-10-01T23:29:22.861Z,1.67
2022-10-01T23:32:00.447Z,1.52
2022-10-01T23:34:37.119Z,1.70
2022-10-01T23:37:21.648Z,1.52
2022-10-01T23:40:03.639Z,1.80
2022-10-01T23:42:42.508Z,2.25
2022-10-01T23:46:01.810Z,1.80
2022-10-01T23:48:30.185Z,1.40
2022-10-01T23:51:17.480Z,2.03
2022-10-01T23:54:21.151Z,2.38
2022-10-01T23:56:57.309Z,1.98
2022-10-01T23:59:28.824Z,2.35
